Time;durP1;ratioP1;P1;durP2;ratioP2;P2;SDS_P1;SDS_P2;PMS_P1;PMS_P2;Temp;Humidity;BMP_temperature;BMP_pressure;BME280_temperature;BME280_humidity;BME280_pressure;Samples;Min_cycle;Max_cycle;Signal;HPM_P1;HPM_P2
2021/12/16 00:09:33;;;;;;;27.33;4.82;;;;;;;;;;4975390;28;20045;-56
2021/12/16 00:32:07;;;;;;;22.45;3.90;;;;;;;;;;4973341;28;20022;-55
2021/12/16 00:34:05;;;;;;;23.30;4.80;;;;;;;;;;4967463;28;20046;-56
2021/12/16 00:36:34;;;;;;;20.67;3.88;;;;;;;;;;4970658;28;20443;-56
2021/12/16 00:39:05;;;;;;;23.35;4.78;;;;;;;;;;4971351;28;20030;-52
2021/12/16 00:41:37;;;;;;;14.82;4.35;;;;;;;;;;4970202;28;20019;-57
2021/12/16 00:54:44;;;;;;;19.85;3.85;;;;;;;;;;4974206;28;20041;-55
2021/12/16 00:57:15;;;;;;;15.68;4.10;;;;;;;;;;4968875;28;20092;-58
2021/12/16 00:59:51;;;;;;;20.98;3.92;;;;;;;;;;4975270;28;20031;-51
2021/12/16 01:05:45;;;;;;;11.60;2.50;;;;;;;;;;4972984;28;20105;-57
2021/12/16 01:36:12;;;;;;;13.77;2.58;;;;;;;;;;4980023;28;20346;-46
2021/12/16 01:39:10;;;;;;;11.55;2.67;;;;;;;;;;4976885;28;20038;-48
2021/12/16 01:42:13;;;;;;;7.38;2.55;;;;;;;;;;4963467;28;20049;-55
2021/12/16 01:47:22;;;;;;;6.50;2.33;;;;;;;;;;4979066;28;20193;-53
2021/12/16 01:49:58;;;;;;;15.68;2.42;;;;;;;;;;4981074;28;20030;-50
2021/12/16 01:55:09;;;;;;;8.98;1.58;;;;;;;;;;4979291;28;20057;-49
2021/12/16 01:57:44;;;;;;;5.55;1.83;;;;;;;;;;4980287;28;20041;-58
2021/12/16 02:00:14;;;;;;;10.05;1.40;;;;;;;;;;4981569;28;20108;-50
2021/12/16 02:02:51;;;;;;;11.23;1.88;;;;;;;;;;4982509;28;20096;-53
2021/12/16 02:05:39;;;;;;;7.20;3.13;;;;;;;;;;4983177;28;20025;-49
2021/12/16 02:08:19;;;;;;;11.32;2.90;;;;;;;;;;4980765;28;20034;-50
2021/12/16 02:10:56;;;;;;;11.02;2.20;;;;;;;;;;4981218;28;20058;-52
2021/12/16 02:32:57;;;;;;;4.25;1.05;;;;;;;;;;4980668;28;20124;-50
2021/12/16 02:37:51;;;;;;;4.72;1.15;;;;;;;;;;4977629;28;20023;-50
2021/12/16 02:40:19;;;;;;;2.20;1.10;;;;;;;;;;4975616;28;20035;-60
2021/12/16 02:42:58;;;;;;;4.20;1.25;;;;;;;;;;4973735;28;20030;-58
2021/12/16 02:50:56;;;;;;;8.18;1.67;;;;;;;;;;4975630;28;20027;-54
2021/12/16 02:53:23;;;;;;;4.38;1.20;;;;;;;;;;4979004;28;20536;-59
2021/12/16 02:55:50;;;;;;;9.60;1.67;;;;;;;;;;4976596;28;20034;-57
2021/12/16 02:58:35;;;;;;;11.63;2.00;;;;;;;;;;4973218;28;20038;-48
2021/12/16 03:01:23;;;;;;;16.55;1.58;;;;;;;;;;4970732;28;20026;-51
2021/12/16 03:03:54;;;;;;;9.75;1.10;;;;;;;;;;4973766;28;20109;-55
2021/12/16 03:06:23;;;;;;;4.80;1.15;;;;;;;;;;4971589;28;20027;-57
2021/12/16 03:09:10;;;;;;;7.18;1.02;;;;;;;;;;4974218;28;20400;-53
2021/12/16 03:14:42;;;;;;;8.35;1.02;;;;;;;;;;4968991;28;20145;-54
2021/12/16 03:17:19;;;;;;;2.00;0.68;;;;;;;;;;4978070;28;20045;-54
2021/12/16 03:19:59;;;;;;;5.38;1.02;;;;;;;;;;4978767;28;20071;-58
2021/12/16 03:25:23;;;;;;;7.78;1.27;;;;;;;;;;4976368;28;20053;-51
2021/12/16 03:36:14;;;;;;;6.00;1.13;;;;;;;;;;4974598;28;20107;-50
2021/12/16 03:38:42;;;;;;;3.00;0.70;;;;;;;;;;4982276;28;20057;-54
2021/12/16 03:41:10;;;;;;;3.90;0.85;;;;;;;;;;4977787;28;20173;-56
2021/12/16 03:43:38;;;;;;;3.55;0.70;;;;;;;;;;4983272;28;20665;-49
2021/12/16 03:48:52;;;;;;;3.75;0.70;;;;;;;;;;4976952;28;20038;-51
2021/12/16 03:51:22;;;;;;;4.78;0.82;;;;;;;;;;4978368;28;20991;-48
2021/12/16 03:53:51;;;;;;;2.88;0.93;;;;;;;;;;4977826;28;20030;-53
2021/12/16 03:56:19;;;;;;;8.95;0.98;;;;;;;;;;4976149;28;20041;-56
2021/12/16 03:58:46;;;;;;;2.60;0.95;;;;;;;;;;4979015;28;20026;-62
2021/12/16 04:01:19;;;;;;;0.88;0.60;;;;;;;;;;4976955;28;20092;-60
2021/12/16 04:03:46;;;;;;;3.33;1.10;;;;;;;;;;4973713;28;20031;-49
2021/12/16 04:06:14;;;;;;;1.80;0.70;;;;;;;;;;4974750;28;20034;-52
2021/12/16 04:08:41;;;;;;;4.85;0.88;;;;;;;;;;4975205;28;20030;-49
2021/12/16 04:11:18;;;;;;;3.88;0.63;;;;;;;;;;4975921;28;20037;-56
2021/12/16 04:13:56;;;;;;;2.88;0.77;;;;;;;;;;4976758;28;20054;-56
2021/12/16 04:16:35;;;;;;;2.58;0.65;;;;;;;;;;4974865;28;20069;-47
2021/12/16 04:19:07;;;;;;;3.08;0.85;;;;;;;;;;4980965;28;20022;-50
2021/12/16 04:21:35;;;;;;;6.50;1.25;;;;;;;;;;4984134;28;20109;-53
2021/12/16 04:24:02;;;;;;;2.63;0.80;;;;;;;;;;4982256;28;20028;-52
2021/12/16 04:26:30;;;;;;;2.88;0.98;;;;;;;;;;4979810;28;20426;-56
2021/12/16 04:28:58;;;;;;;4.55;0.90;;;;;;;;;;4984668;28;20494;-49
2021/12/16 04:31:26;;;;;;;1.95;0.60;;;;;;;;;;4984739;28;20038;-47
2021/12/16 04:33:53;;;;;;;2.70;0.60;;;;;;;;;;4983299;28;20035;-48
2021/12/16 04:36:21;;;;;;;3.92;1.02;;;;;;;;;;4976970;28;20034;-50
2021/12/16 04:38:48;;;;;;;3.05;0.65;;;;;;;;;;4981100;28;20034;-48
2021/12/16 04:41:17;;;;;;;4.40;0.82;;;;;;;;;;4980763;28;20041;-47
2021/12/16 04:43:50;;;;;;;2.03;0.63;;;;;;;;;;4980094;28;20033;-50
2021/12/16 04:46:26;;;;;;;4.10;0.50;;;;;;;;;;4976428;28;20816;-48
2021/12/16 04:48:55;;;;;;;1.10;0.50;;;;;;;;;;4982583;28;20598;-48
2021/12/16 04:51:24;;;;;;;2.38;0.57;;;;;;;;;;4978971;28;20033;-50
2021/12/16 04:53:51;;;;;;;2.75;0.88;;;;;;;;;;4984391;28;20042;-46
2021/12/16 04:56:18;;;;;;;4.00;0.70;;;;;;;;;;4982083;28;20038;-49
2021/12/16 04:58:48;;;;;;;7.55;1.00;;;;;;;;;;4983194;28;20662;-50
2021/12/16 05:01:15;;;;;;;3.55;0.80;;;;;;;;;;4986194;28;20030;-49
2021/12/16 05:03:43;;;;;;;2.92;0.75;;;;;;;;;;4983929;28;20122;-50
2021/12/16 05:06:10;;;;;;;3.85;1.13;;;;;;;;;;4986608;28;20031;-53
2021/12/16 05:08:38;;;;;;;2.47;0.52;;;;;;;;;;4982242;28;20037;-55
2021/12/16 05:11:06;;;;;;;1.75;0.57;;;;;;;;;;4986651;28;20037;-48
2021/12/16 05:13:34;;;;;;;4.88;0.70;;;;;;;;;;4982893;28;20442;-51
2021/12/16 05:16:03;;;;;;;3.60;0.85;;;;;;;;;;4979071;28;20062;-47
2021/12/16 05:18:34;;;;;;;2.03;0.90;;;;;;;;;;4981872;28;20752;-48
2021/12/16 05:21:04;;;;;;;2.67;0.80;;;;;;;;;;4984705;28;20109;-53
2021/12/16 05:26:19;;;;;;;5.00;1.42;;;;;;;;;;4984019;28;20049;-57
2021/12/16 05:28:52;;;;;;;2.90;0.93;;;;;;;;;;4980928;28;20492;-50
2021/12/16 05:31:22;;;;;;;4.85;0.98;;;;;;;;;;4971590;28;20031;-50
2021/12/16 05:33:49;;;;;;;3.53;0.85;;;;;;;;;;4974093;28;20173;-49
2021/12/16 05:36:17;;;;;;;3.13;1.05;;;;;;;;;;4979939;28;20100;-59
2021/12/16 05:38:44;;;;;;;2.40;0.70;;;;;;;;;;4969581;28;20084;-48
2021/12/16 05:41:13;;;;;;;2.20;0.60;;;;;;;;;;4980559;28;20029;-48
2021/12/16 05:43:40;;;;;;;3.28;1.08;;;;;;;;;;4980354;28;20506;-59
2021/12/16 05:46:07;;;;;;;1.52;0.70;;;;;;;;;;4979296;28;20038;-49
2021/12/16 05:48:36;;;;;;;3.20;1.10;;;;;;;;;;4972974;28;20037;-50
2021/12/16 05:51:06;;;;;;;4.07;1.00;;;;;;;;;;4969280;28;20483;-56
2021/12/16 05:53:33;;;;;;;4.60;0.98;;;;;;;;;;4970028;28;20104;-52
2021/12/16 05:56:00;;;;;;;4.28;1.02;;;;;;;;;;4979278;28;20039;-53
2021/12/16 05:58:28;;;;;;;3.22;0.95;;;;;;;;;;4974750;28;20058;-52
2021/12/16 06:01:00;;;;;;;2.83;1.00;;;;;;;;;;4977565;28;20470;-50
2021/12/16 06:03:27;;;;;;;2.72;1.10;;;;;;;;;;4978452;28;20471;-48
2021/12/16 06:05:54;;;;;;;2.10;0.70;;;;;;;;;;4976387;28;20102;-60
2021/12/16 06:08:22;;;;;;;3.38;1.00;;;;;;;;;;4969390;28;20031;-48
2021/12/16 06:11:13;;;;;;;3.75;1.10;;;;;;;;;;4975071;28;20106;-51
2021/12/16 06:13:44;;;;;;;3.13;0.68;;;;;;;;;;4970673;28;20074;-50
2021/12/16 06:27:14;;;;;;;1.83;0.70;;;;;;;;;;4972376;28;20041;-60
2021/12/16 06:29:46;;;;;;;3.22;0.93;;;;;;;;;;4980769;28;20046;-53
2021/12/16 06:32:12;;;;;;;;;;;;;;;;;;4974197;28;20042;-61
2021/12/16 06:34:40;;;;;;;4.60;1.27;;;;;;;;;;4986846;28;19953;-60
2021/12/16 06:37:07;;;;;;;3.30;0.65;;;;;;;;;;4974799;28;20027;-59
2021/12/16 06:39:35;;;;;;;2.15;0.60;;;;;;;;;;4980497;28;20018;-58
2021/12/16 06:42:05;;;;;;;1.73;0.60;;;;;;;;;;4978078;28;20729;-60
2021/12/16 06:44:39;;;;;;;4.18;0.60;;;;;;;;;;4987790;28;20065;-55
2021/12/16 06:47:11;;;;;;;1.33;0.80;;;;;;;;;;4985200;28;20022;-56
2021/12/16 06:49:40;;;;;;;;;;;;;;;;;;4988336;28;20050;-60
2021/12/16 06:52:11;;;;;;;2.20;0.70;;;;;;;;;;4977184;28;19918;-60
2021/12/16 06:54:58;;;;;;;1.75;0.60;;;;;;;;;;4975112;28;20043;-57
2021/12/16 07:00:10;;;;;;;1.50;0.63;;;;;;;;;;4989292;28;20389;-60
2021/12/16 07:05:15;;;;;;;1.50;0.90;;;;;;;;;;4985402;28;20402;-56
2021/12/16 07:07:43;;;;;;;2.22;0.90;;;;;;;;;;4981135;28;20532;-61
2021/12/16 07:10:11;;;;;;;4.22;1.27;;;;;;;;;;4984180;28;20031;-58
2021/12/16 07:12:41;;;;;;;1.65;0.77;;;;;;;;;;4988427;28;20027;-60
2021/12/16 07:15:09;;;;;;;3.97;1.00;;;;;;;;;;4978857;28;20046;-56
2021/12/16 07:17:37;;;;;;;1.65;0.90;;;;;;;;;;4993514;28;20030;-53
2021/12/16 07:20:05;;;;;;;4.93;0.98;;;;;;;;;;4988553;28;20038;-48
2021/12/16 07:22:34;;;;;;;0.93;0.55;;;;;;;;;;4990022;28;20085;-55
2021/12/16 07:25:02;;;;;;;2.42;0.80;;;;;;;;;;4979726;28;20042;-46
2021/12/16 07:27:31;;;;;;;3.63;0.85;;;;;;;;;;4980762;28;20042;-55
2021/12/16 07:29:58;;;;;;;4.93;0.80;;;;;;;;;;4974114;28;20061;-52
2021/12/16 07:32:25;;;;;;;2.20;0.65;;;;;;;;;;4990717;28;20486;-55
2021/12/16 07:34:52;;;;;;;1.20;0.65;;;;;;;;;;4988711;28;20475;-62
2021/12/16 07:37:19;;;;;;;2.42;0.68;;;;;;;;;;4986614;28;20026;-50
2021/12/16 07:39:47;;;;;;;3.05;0.90;;;;;;;;;;4991877;28;20030;-48
2021/12/16 07:42:23;;;;;;;3.00;1.00;;;;;;;;;;4985148;28;20019;-46
2021/12/16 07:44:50;;;;;;;2.70;0.82;;;;;;;;;;4989023;28;20027;-51
2021/12/16 07:47:17;;;;;;;2.92;0.95;;;;;;;;;;4977664;28;20034;-49
2021/12/16 07:49:45;;;;;;;3.60;1.00;;;;;;;;;;4973395;28;20038;-47
2021/12/16 07:52:13;;;;;;;3.00;0.88;;;;;;;;;;4976420;28;20030;-50
2021/12/16 07:54:40;;;;;;;3.50;0.77;;;;;;;;;;4990959;28;20759;-49
2021/12/16 07:57:08;;;;;;;4.75;0.70;;;;;;;;;;4992423;28;20045;-55
2021/12/16 07:59:36;;;;;;;2.53;0.77;;;;;;;;;;4978731;28;20488;-46
2021/12/16 08:02:04;;;;;;;2.70;0.80;;;;;;;;;;4975226;28;20022;-47
2021/12/16 08:04:39;;;;;;;2.90;0.77;;;;;;;;;;4976831;28;20490;-49
2021/12/16 08:07:06;;;;;;;2.60;0.95;;;;;;;;;;4992313;28;20500;-47
2021/12/16 08:09:35;;;;;;;4.97;1.05;;;;;;;;;;4987000;28;20129;-48
2021/12/16 08:12:02;;;;;;;6.13;0.90;;;;;;;;;;4973706;28;20106;-47
2021/12/16 08:14:29;;;;;;;1.98;0.82;;;;;;;;;;4981731;28;20113;-47
2021/12/16 08:16:56;;;;;;;2.45;0.90;;;;;;;;;;4978523;28;20101;-50
2021/12/16 08:19:24;;;;;;;3.75;0.80;;;;;;;;;;4989752;28;20038;-53
2021/12/16 08:21:51;;;;;;;3.45;0.88;;;;;;;;;;4976509;28;20482;-50
2021/12/16 08:24:18;;;;;;;5.35;1.48;;;;;;;;;;4990315;28;20105;-47
2021/12/16 08:26:47;;;;;;;2.20;0.82;;;;;;;;;;4978294;28;20093;-50
2021/12/16 08:29:14;;;;;;;2.45;0.65;;;;;;;;;;4991204;28;20505;-49
2021/12/16 08:31:41;;;;;;;3.63;0.80;;;;;;;;;;4980024;28;20030;-54
2021/12/16 08:34:08;;;;;;;3.05;1.08;;;;;;;;;;4991790;28;20038;-48
2021/12/16 08:36:35;;;;;;;3.00;1.00;;;;;;;;;;4991637;28;20077;-54
2021/12/16 08:39:04;;;;;;;1.95;0.80;;;;;;;;;;4990134;28;20066;-61
2021/12/16 08:41:33;;;;;;;2.83;0.70;;;;;;;;;;4983615;28;20101;-54
2021/12/16 08:44:01;;;;;;;1.77;0.60;;;;;;;;;;4984448;28;20795;-58
2021/12/16 08:46:30;;;;;;;2.60;0.70;;;;;;;;;;4991587;28;20497;-61
2021/12/16 08:48:57;;;;;;;2.28;0.80;;;;;;;;;;4987855;28;20102;-60
2021/12/16 08:51:26;;;;;;;1.35;0.70;;;;;;;;;;4984485;28;20482;-62
2021/12/16 08:53:53;;;;;;;3.05;0.80;;;;;;;;;;4987414;28;20039;-62
2021/12/16 08:56:21;;;;;;;3.20;1.00;;;;;;;;;;4980946;28;20070;-59
2021/12/16 08:58:48;;;;;;;0.90;0.57;;;;;;;;;;4971099;28;20029;-60
2021/12/16 09:01:19;;;;;;;3.80;1.02;;;;;;;;;;4975074;28;20403;-56
2021/12/16 09:03:46;;;;;;;2.80;0.68;;;;;;;;;;4987621;28;20046;-59
2021/12/16 09:06:13;;;;;;;2.78;0.80;;;;;;;;;;4973557;28;20023;-62
2021/12/16 09:08:40;;;;;;;1.52;0.68;;;;;;;;;;4986694;28;20081;-58
2021/12/16 09:11:09;;;;;;;2.22;0.80;;;;;;;;;;4981226;28;20513;-59
2021/12/16 09:13:39;;;;;;;1.17;0.52;;;;;;;;;;4986795;28;20042;-61
2021/12/16 09:16:07;;;;;;;0.80;0.50;;;;;;;;;;4991110;28;20084;-48
2021/12/16 09:18:41;;;;;;;1.20;0.68;;;;;;;;;;4977253;28;20487;-59
2021/12/16 09:21:09;;;;;;;4.45;1.00;;;;;;;;;;4983193;28;20031;-56
2021/12/16 09:23:36;;;;;;;1.58;0.63;;;;;;;;;;4986628;28;20113;-60
2021/12/16 09:26:04;;;;;;;2.35;1.02;;;;;;;;;;4974598;28;20030;-53
2021/12/16 09:28:31;;;;;;;1.33;0.68;;;;;;;;;;4985225;28;20073;-57
2021/12/16 09:30:58;;;;;;;1.63;0.50;;;;;;;;;;4972741;28;20089;-60
2021/12/16 09:33:27;;;;;;;4.00;0.93;;;;;;;;;;4973375;28;20034;-57
2021/12/16 09:35:55;;;;;;;1.65;0.63;;;;;;;;;;4980347;28;20034;-49
2021/12/16 09:38:23;;;;;;;4.10;0.90;;;;;;;;;;4970724;28;20030;-60
2021/12/16 09:40:53;;;;;;;2.28;0.73;;;;;;;;;;4971193;28;20086;-58
2021/12/16 09:43:24;;;;;;;5.15;0.80;;;;;;;;;;4973038;28;20450;-52
2021/12/16 09:45:53;;;;;;;1.92;0.73;;;;;;;;;;4984701;28;20022;-55
2021/12/16 09:48:20;;;;;;;4.30;0.80;;;;;;;;;;4971053;28;20019;-49
2021/12/16 09:50:47;;;;;;;1.95;0.77;;;;;;;;;;4971011;28;20031;-49
2021/12/16 09:53:14;;;;;;;2.15;0.75;;;;;;;;;;4971227;28;20435;-49
2021/12/16 09:55:43;;;;;;;3.78;0.80;;;;;;;;;;4982867;28;20402;-61
2021/12/16 09:58:10;;;;;;;2.45;0.80;;;;;;;;;;4971389;28;20035;-60
2021/12/16 10:00:37;;;;;;;2.55;0.85;;;;;;;;;;4984412;28;20042;-61
2021/12/16 10:03:05;;;;;;;3.40;0.90;;;;;;;;;;4973173;28;20038;-50
2021/12/16 10:05:34;;;;;;;2.65;1.00;;;;;;;;;;4982071;28;20039;-57
2021/12/16 10:08:04;;;;;;;1.85;0.70;;;;;;;;;;4978487;28;20117;-55
2021/12/16 10:10:31;;;;;;;3.20;1.15;;;;;;;;;;4975103;28;20105;-56
2021/12/16 10:13:01;;;;;;;2.10;0.80;;;;;;;;;;4974159;28;20031;-52
2021/12/16 10:18:01;;;;;;;2.20;0.57;;;;;;;;;;4986732;28;20018;-61
2021/12/16 10:20:34;;;;;;;1.30;0.55;;;;;;;;;;4982002;28;20034;-51
2021/12/16 10:23:00;;;;;;;;;;;;;;;;;;4975065;28;20023;-57
2021/12/16 10:25:35;;;;;;;3.35;0.70;;;;;;;;;;4984479;28;19913;-50
2021/12/16 10:28:08;;;;;;;5.28;0.90;;;;;;;;;;4982914;28;20033;-56
2021/12/16 10:30:46;;;;;;;2.72;0.80;;;;;;;;;;4986736;28;20035;-58
2021/12/16 10:33:33;;;;;;;5.45;1.40;;;;;;;;;;4977153;28;20023;-53
2021/12/16 10:36:03;;;;;;;3.03;1.00;;;;;;;;;;4986783;28;20074;-59
2021/12/16 10:38:35;;;;;;;1.70;0.68;;;;;;;;;;4978817;28;20030;-53
2021/12/16 10:41:01;;;;;;;2.08;0.60;;;;;;;;;;4989992;28;20058;-60
2021/12/16 10:43:40;;;;;;;2.60;0.77;;;;;;;;;;4993195;28;20068;-58
2021/12/16 10:46:16;;;;;;;2.95;0.85;;;;;;;;;;4989190;28;20124;-52
2021/12/16 10:48:51;;;;;;;2.95;0.80;;;;;;;;;;4979378;28;20057;-52
2021/12/16 10:51:22;;;;;;;3.45;1.10;;;;;;;;;;4983240;28;20026;-47
2021/12/16 10:54:08;;;;;;;5.65;1.30;;;;;;;;;;4985352;28;20046;-47
2021/12/16 10:56:39;;;;;;;3.58;0.88;;;;;;;;;;4986297;28;20573;-48
2021/12/16 10:59:08;;;;;;;2.97;1.08;;;;;;;;;;4974580;28;20027;-47
2021/12/16 11:01:41;;;;;;;3.88;0.70;;;;;;;;;;4978100;28;20049;-47
2021/12/16 11:04:11;;;;;;;5.50;1.40;;;;;;;;;;4975500;28;20031;-47
2021/12/16 11:06:40;;;;;;;4.82;1.13;;;;;;;;;;4986450;28;20085;-46
2021/12/16 11:09:23;;;;;;;3.50;1.02;;;;;;;;;;4980405;28;20593;-46
2021/12/16 11:12:04;;;;;;;6.10;1.33;;;;;;;;;;4983258;28;20052;-51
2021/12/16 11:14:31;;;;;;;11.53;3.87;;;;;;;;;;4980665;28;20058;-51
2021/12/16 11:17:00;;;;;;;5.68;2.63;;;;;;;;;;4975167;28;20504;-61
2021/12/16 11:20:02;;;;;;;13.30;2.90;;;;;;;;;;4983184;28;20030;-62
2021/12/16 11:22:33;;;;;;;11.53;2.33;;;;;;;;;;4915144;29;20474;-59
2021/12/16 11:25:12;;;;;;;7.50;1.97;;;;;;;;;;4968474;28;20062;-62
2021/12/16 11:27:39;;;;;;;8.57;1.70;;;;;;;;;;4979160;28;20272;-59
2021/12/16 11:30:20;;;;;;;4.57;1.38;;;;;;;;;;4984520;28;20409;-54
2021/12/16 11:32:49;;;;;;;10.07;1.67;;;;;;;;;;4992229;28;20605;-63
2021/12/16 11:35:31;;;;;;;12.30;1.63;;;;;;;;;;4991838;28;20390;-45
2021/12/16 11:38:01;;;;;;;9.50;1.65;;;;;;;;;;4981544;28;20031;-56
2021/12/16 11:40:28;;;;;;;6.10;1.50;;;;;;;;;;4975455;28;20031;-51
2021/12/16 11:43:00;;;;;;;5.40;1.17;;;;;;;;;;4979084;28;20120;-56
2021/12/16 11:45:34;;;;;;;10.70;1.63;;;;;;;;;;4979501;28;20150;-59
2021/12/16 11:48:01;;;;;;;8.27;1.90;;;;;;;;;;4980001;28;20482;-51
2021/12/16 11:50:36;;;;;;;14.70;3.00;;;;;;;;;;4963094;28;20038;-42
2021/12/16 11:53:04;;;;;;;10.13;2.10;;;;;;;;;;4977359;28;20026;-52
2021/12/16 11:55:34;;;;;;;6.03;1.60;;;;;;;;;;4980494;28;20062;-49
2021/12/16 11:58:03;;;;;;;10.95;1.73;;;;;;;;;;4977749;28;20224;-49
2021/12/16 12:00:41;;;;;;;12.85;2.00;;;;;;;;;;4987098;28;20034;-51
2021/12/16 12:03:13;;;;;;;12.60;2.35;;;;;;;;;;4979629;28;20121;-57
2021/12/16 12:05:45;;;;;;;9.30;2.17;;;;;;;;;;4979432;28;20049;-56
2021/12/16 12:08:14;;;;;;;7.97;2.42;;;;;;;;;;4990807;28;20041;-60
2021/12/16 12:10:51;;;;;;;4.13;1.80;;;;;;;;;;4984246;28;20049;-69
2021/12/16 12:13:29;;;;;;;12.80;2.10;;;;;;;;;;4989041;28;20030;-57
2021/12/16 12:16:07;;;;;;;11.30;1.83;;;;;;;;;;4987151;28;20046;-64
2021/12/16 12:18:34;;;;;;;14.23;2.17;;;;;;;;;;4987967;28;20026;-62
2021/12/16 12:21:19;;;;;;;17.20;2.45;;;;;;;;;;4985106;28;20026;-43
2021/12/16 12:23:47;;;;;;;5.82;1.75;;;;;;;;;;4983468;28;20069;-59
2021/12/16 12:26:16;;;;;;;4.72;1.52;;;;;;;;;;4976616;28;20063;-58
2021/12/16 12:28:45;;;;;;;7.20;1.98;;;;;;;;;;4984986;28;20498;-58
2021/12/16 12:31:13;;;;;;;11.32;1.90;;;;;;;;;;4980522;28;20656;-63
2021/12/16 12:33:40;;;;;;;10.55;2.28;;;;;;;;;;4975934;28;20026;-55
2021/12/16 12:36:08;;;;;;;8.40;2.50;;;;;;;;;;4972680;28;20041;-61
2021/12/16 12:38:36;;;;;;;7.95;2.45;;;;;;;;;;4975234;28;20030;-48
2021/12/16 12:41:05;;;;;;;11.60;2.15;;;;;;;;;;4975279;28;20070;-56
2021/12/16 12:43:35;;;;;;;8.57;2.53;;;;;;;;;;4978299;28;20406;-44
2021/12/16 12:46:05;;;;;;;11.63;2.17;;;;;;;;;;4970560;28;20121;-52
2021/12/16 12:48:34;;;;;;;8.07;2.03;;;;;;;;;;4974477;28;20107;-45
2021/12/16 12:51:01;;;;;;;8.90;2.00;;;;;;;;;;4970776;28;20027;-42
2021/12/16 12:53:33;;;;;;;11.02;3.10;;;;;;;;;;4971414;28;20131;-46
2021/12/16 12:56:08;;;;;;;15.20;2.80;;;;;;;;;;4972295;28;20046;-55
2021/12/16 12:58:47;;;;;;;19.95;2.28;;;;;;;;;;4970536;28;20085;-58
2021/12/16 13:01:14;;;;;;;10.70;1.92;;;;;;;;;;4969185;28;20402;-54
2021/12/16 13:03:41;;;;;;;8.85;1.90;;;;;;;;;;4970947;28;20026;-54
2021/12/16 13:06:19;;;;;;;11.15;1.90;;;;;;;;;;4969066;28;20026;-41
2021/12/16 13:08:50;;;;;;;15.00;2.13;;;;;;;;;;4968444;28;20085;-47
2021/12/16 13:11:28;;;;;;;8.30;2.17;;;;;;;;;;4975508;28;20081;-48
2021/12/16 13:14:09;;;;;;;10.38;1.40;;;;;;;;;;4966923;28;20117;-43
2021/12/16 13:28:40;;;;;;;10.13;2.72;;;;;;;;;;4970672;28;20049;-43
2021/12/16 13:31:25;;;;;;;13.23;2.58;;;;;;;;;;4968574;28;20042;-45
2021/12/16 13:33:56;;;;;;;8.93;1.98;;;;;;;;;;4972030;28;20026;-52
2021/12/16 13:36:43;;;;;;;7.47;2.10;;;;;;;;;;4972014;28;20022;-47
2021/12/16 13:39:16;;;;;;;16.55;2.15;;;;;;;;;;4971516;28;20042;-42
2021/12/16 13:41:55;;;;;;;11.98;2.83;;;;;;;;;;4969957;28;20030;-42
2021/12/16 13:44:37;;;;;;;12.63;2.30;;;;;;;;;;4966597;28;20054;-54
2021/12/16 13:47:16;;;;;;;;;;;;;;;;;;4969380;28;20126;-50
2021/12/16 14:01:38;;;;;;;10.70;2.03;;;;;;;;;;4968379;28;20069;-53
2021/12/16 14:05:18;;;;;;;7.70;2.22;;;;;;;;;;4968195;28;20031;-48
2021/12/16 14:10:09;;;;;;;8.73;2.00;;;;;;;;;;4969416;28;20118;-50
2021/12/16 14:26:49;;;;;;;10.00;1.75;;;;;;;;;;4951234;28;20032;-46
2021/12/16 14:33:11;;;;;;;9.63;1.70;;;;;;;;;;4951056;28;20132;-50
2021/12/16 14:35:19;;;;;;;7.47;1.50;;;;;;;;;;4948187;28;20480;-52
2021/12/16 14:41:07;;;;;;;6.95;1.60;;;;;;;;;;4961144;28;20039;-56
2021/12/16 14:43:54;;;;;;;6.45;1.80;;;;;;;;;;4948492;28;20027;-45
2021/12/16 14:46:28;;;;;;;11.00;3.05;;;;;;;;;;4947163;28;20062;-44
2021/12/16 14:48:55;;;;;;;12.48;2.15;;;;;;;;;;4949170;28;20035;-45
2021/12/16 14:51:22;;;;;;;14.85;1.90;;;;;;;;;;4949018;28;20078;-48
2021/12/16 14:53:54;;;;;;;6.45;1.60;;;;;;;;;;4952932;28;20487;-45
2021/12/16 14:56:21;;;;;;;16.88;2.03;;;;;;;;;;4949703;28;20416;-54
2021/12/16 14:58:50;;;;;;;7.93;1.48;;;;;;;;;;4958715;28;20027;-49
2021/12/16 15:01:20;;;;;;;8.57;2.65;;;;;;;;;;4960343;28;20073;-50
2021/12/16 15:03:49;;;;;;;11.45;2.03;;;;;;;;;;4954633;28;20028;-51
2021/12/16 15:06:24;;;;;;;12.77;2.72;;;;;;;;;;4967414;28;20049;-43
2021/12/16 15:09:11;;;;;;;9.15;2.00;;;;;;;;;;4965555;28;20061;-44
2021/12/16 15:11:49;;;;;;;12.88;2.97;;;;;;;;;;4964549;28;20027;-45
2021/12/16 15:17:17;;;;;;;16.85;2.47;;;;;;;;;;4964240;28;20061;-43
2021/12/16 15:44:15;;;;;;;13.60;3.25;;;;;;;;;;4959068;28;20042;-48
2021/12/16 15:46:43;;;;;;;14.88;2.50;;;;;;;;;;4956851;28;20027;-49
2021/12/16 15:49:10;;;;;;;8.98;1.70;;;;;;;;;;4958791;28;20027;-45
2021/12/16 15:51:37;;;;;;;11.43;1.80;;;;;;;;;;4957217;28;20060;-43
2021/12/16 15:54:06;;;;;;;14.30;2.28;;;;;;;;;;4956497;28;21184;-43
2021/12/16 15:56:35;;;;;;;11.25;2.28;;;;;;;;;;4956582;28;20027;-43
2021/12/16 15:59:07;;;;;;;9.80;1.40;;;;;;;;;;4959308;28;20449;-42
2021/12/16 16:01:41;;;;;;;11.40;1.67;;;;;;;;;;4959975;28;20066;-42
2021/12/16 16:04:16;;;;;;;8.25;1.58;;;;;;;;;;4954013;28;20034;-53
2021/12/16 16:06:47;;;;;;;6.68;1.20;;;;;;;;;;4954229;28;20217;-46
2021/12/16 16:09:15;;;;;;;7.63;1.98;;;;;;;;;;4956335;28;20052;-48
2021/12/16 16:11:45;;;;;;;16.52;2.47;;;;;;;;;;4954382;28;20035;-44
2021/12/16 16:14:13;;;;;;;27.00;3.92;;;;;;;;;;4950479;28;20075;-55
2021/12/16 16:16:46;;;;;;;9.75;2.00;;;;;;;;;;4971828;28;20050;-47
2021/12/16 16:19:16;;;;;;;10.57;1.80;;;;;;;;;;4968371;28;20078;-50
2021/12/16 16:21:46;;;;;;;15.02;2.35;;;;;;;;;;4980795;28;20062;-55
2021/12/16 16:24:17;;;;;;;14.98;3.00;;;;;;;;;;4977654;28;20033;-60
2021/12/16 16:26:44;;;;;;;9.73;2.67;;;;;;;;;;4976666;28;20541;-57
2021/12/16 16:29:14;;;;;;;12.95;3.30;;;;;;;;;;4976131;28;20030;-48
2021/12/16 16:31:42;;;;;;;19.10;3.90;;;;;;;;;;4974548;28;20492;-47
2021/12/16 16:34:10;;;;;;;21.38;4.47;;;;;;;;;;4975699;28;20042;-51
2021/12/16 16:36:42;;;;;;;31.23;6.22;;;;;;;;;;4976276;28;20034;-52
2021/12/16 16:39:11;;;;;;;43.83;8.07;;;;;;;;;;4978149;28;20069;-47
2021/12/16 16:41:40;;;;;;;45.00;7.28;;;;;;;;;;4976450;28;20026;-52
2021/12/16 16:44:12;;;;;;;30.40;6.95;;;;;;;;;;4977506;28;20049;-49
2021/12/16 16:46:42;;;;;;;36.22;7.32;;;;;;;;;;4974535;28;20022;-55
2021/12/16 16:49:10;;;;;;;27.02;8.20;;;;;;;;;;4977609;28;20027;-50
2021/12/16 16:51:37;;;;;;;33.20;8.52;;;;;;;;;;4971455;28;20027;-49
2021/12/16 16:54:20;;;;;;;30.80;7.93;;;;;;;;;;4977571;28;20106;-48
2021/12/16 16:56:57;;;;;;;32.67;8.07;;;;;;;;;;4972229;28;20038;-50
2021/12/16 16:59:30;;;;;;;38.65;7.80;;;;;;;;;;4978445;28;20038;-53
2021/12/16 17:01:58;;;;;;;24.25;6.22;;;;;;;;;;4972904;28;20070;-51
2021/12/16 17:04:25;;;;;;;32.55;6.57;;;;;;;;;;4976035;28;20034;-50
2021/12/16 17:06:55;;;;;;;40.13;7.03;;;;;;;;;;4978353;28;20073;-48
2021/12/16 17:09:22;;;;;;;28.13;6.53;;;;;;;;;;4975141;28;20023;-52
2021/12/16 17:11:51;;;;;;;22.55;5.00;;;;;;;;;;4977468;28;20445;-52
2021/12/16 17:14:22;;;;;;;30.77;5.85;;;;;;;;;;4978666;28;20544;-56
2021/12/16 17:17:20;;;;;;;18.55;3.88;;;;;;;;;;4976293;28;20050;-54
2021/12/16 17:19:49;;;;;;;25.42;4.05;;;;;;;;;;4977850;28;20030;-55
2021/12/16 17:22:18;;;;;;;24.98;5.50;;;;;;;;;;4976963;28;20032;-51
2021/12/16 17:24:46;;;;;;;12.63;3.38;;;;;;;;;;4971606;28;20034;-57
2021/12/16 17:27:15;;;;;;;23.73;4.35;;;;;;;;;;4972012;28;20372;-54
2021/12/16 17:29:49;;;;;;;23.98;4.30;;;;;;;;;;4972887;28;20490;-52
2021/12/16 17:32:18;;;;;;;14.75;3.58;;;;;;;;;;4975281;28;20042;-48
2021/12/16 17:34:47;;;;;;;21.92;3.63;;;;;;;;;;4972927;28;20121;-51
2021/12/16 17:37:17;;;;;;;16.40;2.60;;;;;;;;;;4981863;28;20030;-53
2021/12/16 17:39:47;;;;;;;19.95;3.65;;;;;;;;;;4978489;28;20355;-54
2021/12/16 17:42:16;;;;;;;14.32;2.35;;;;;;;;;;4974902;28;20490;-52
2021/12/16 17:44:45;;;;;;;22.67;3.92;;;;;;;;;;4977818;28;20094;-45
2021/12/16 17:47:14;;;;;;;20.42;3.47;;;;;;;;;;4977430;28;20031;-46
2021/12/16 17:49:43;;;;;;;26.63;4.68;;;;;;;;;;4972006;28;20035;-48
2021/12/16 17:52:16;;;;;;;18.92;3.33;;;;;;;;;;4975631;28;20030;-49
2021/12/16 17:54:48;;;;;;;24.38;4.22;;;;;;;;;;4975172;28;20046;-44
2021/12/16 17:57:22;;;;;;;25.15;3.40;;;;;;;;;;4971557;28;20027;-47
2021/12/16 17:59:49;;;;;;;12.15;3.50;;;;;;;;;;4973673;28;20034;-49
2021/12/16 18:02:18;;;;;;;19.38;3.50;;;;;;;;;;4970529;28;20054;-44
2021/12/16 18:04:48;;;;;;;23.77;4.25;;;;;;;;;;4977121;28;20031;-50
2021/12/16 18:07:15;;;;;;;19.05;3.35;;;;;;;;;;4977620;28;20041;-45
2021/12/16 18:09:44;;;;;;;23.35;3.90;;;;;;;;;;4981272;28;20065;-45
2021/12/16 18:12:11;;;;;;;18.27;4.03;;;;;;;;;;4983629;28;20026;-51
2021/12/16 18:14:43;;;;;;;27.08;3.85;;;;;;;;;;4980866;28;20050;-48
2021/12/16 18:17:13;;;;;;;24.52;4.40;;;;;;;;;;4975090;28;20046;-44
2021/12/16 18:19:56;;;;;;;24.38;3.67;;;;;;;;;;4979884;28;20033;-44
2021/12/16 18:22:26;;;;;;;22.42;4.22;;;;;;;;;;4979144;28;20660;-48
2021/12/16 18:24:54;;;;;;;18.30;3.90;;;;;;;;;;4980852;28;20506;-53
2021/12/16 18:27:34;;;;;;;25.23;3.17;;;;;;;;;;4980779;28;20030;-54
2021/12/16 18:30:13;;;;;;;14.23;3.10;;;;;;;;;;4974801;28;20070;-48
2021/12/16 18:32:44;;;;;;;21.50;3.38;;;;;;;;;;4983337;28;20161;-46
2021/12/16 18:35:14;;;;;;;18.88;3.75;;;;;;;;;;4983184;28;20543;-47
2021/12/16 18:37:48;;;;;;;12.00;2.65;;;;;;;;;;4984610;28;20026;-45
2021/12/16 18:40:17;;;;;;;21.98;3.88;;;;;;;;;;4977745;28;20552;-45